Time;durP1;ratioP1;P1;durP2;ratioP2;P2;SDS_P1;SDS_P2;PMS_P1;PMS_P2;Temp;Humidity;BMP_temperature;BMP_pressure;BME280_temperature;BME280_humidity;BME280_pressure;Samples;Min_cycle;Max_cycle;Signal;HPM_P1;HPM_P2
2023/04/12 00:01:25;;;;;;;7.13;2.38;;;;;;;8.43;100.00;100476.47;5035780;28;20024;-61
2023/04/12 00:03:53;;;;;;;6.55;1.90;;;;;;;8.44;100.00;100464.44;5044893;28;20356;-61
2023/04/12 00:06:24;;;;;;;7.25;2.30;;;;;;;8.46;100.00;100467.78;5030640;28;20392;-61
2023/04/12 00:08:49;;;;;;;4.25;1.80;;;;;;;8.42;100.00;100461.09;5026846;28;20071;-61
2023/04/12 00:11:15;;;;;;;5.63;1.70;;;;;;;8.30;100.00;100447.28;5026740;28;20030;-62
2023/04/12 00:13:40;;;;;;;4.35;1.58;;;;;;;8.29;100.00;100440.97;5027128;28;20017;-62
2023/04/12 00:16:06;;;;;;;3.72;1.58;;;;;;;8.20;100.00;100447.78;5025846;28;20080;-61
2023/04/12 00:18:31;;;;;;;3.97;1.60;;;;;;;8.32;100.00;100432.31;5021749;28;20041;-62
2023/04/12 00:20:56;;;;;;;4.65;1.80;;;;;;;8.14;100.00;100432.28;5039545;28;20028;-61
2023/04/12 00:23:22;;;;;;;6.00;1.60;;;;;;;8.12;100.00;100420.75;5030952;28;20025;-61
2023/04/12 00:25:47;;;;;;;4.72;1.55;;;;;;;8.11;100.00;100405.41;5024944;28;20026;-62
2023/04/12 00:28:14;;;;;;;3.28;1.50;;;;;;;8.09;100.00;100406.66;5036339;28;20148;-63
2023/04/12 00:30:40;;;;;;;3.45;1.58;;;;;;;8.13;100.00;100397.78;5044159;28;20030;-61
2023/04/12 00:33:06;;;;;;;4.55;1.52;;;;;;;8.05;100.00;100387.13;5027083;28;20025;-61
2023/04/12 00:35:31;;;;;;;4.93;1.92;;;;;;;7.99;100.00;100375.19;4994719;28;20032;-61
2023/04/12 00:37:56;;;;;;;5.55;1.77;;;;;;;7.99;100.00;100363.41;5032978;28;20111;-62
2023/04/12 00:40:21;;;;;;;4.10;1.60;;;;;;;7.99;100.00;100368.91;5023999;28;20041;-61
2023/04/12 00:42:47;;;;;;;4.63;2.13;;;;;;;7.99;100.00;100360.69;5025906;28;20476;-61
2023/04/12 00:45:13;;;;;;;5.97;1.90;;;;;;;8.09;100.00;100349.22;5018256;28;20025;-63
2023/04/12 00:47:41;;;;;;;4.57;1.83;;;;;;;8.05;100.00;100346.09;5045085;28;20025;-61
2023/04/12 00:50:07;;;;;;;;;;;;;;;8.06;100.00;100336.88;5026899;28;20060;-61
2023/04/12 00:52:33;;;;;;;4.13;1.52;;;;;;;8.07;100.00;100327.59;5025716;28;19943;-61
2023/04/12 00:55:03;;;;;;;4.70;1.80;;;;;;;8.04;100.00;100333.50;5026102;28;20029;-61
2023/04/12 00:57:34;;;;;;;5.07;2.10;;;;;;;7.97;100.00;100335.47;5043420;28;20048;-61
2023/04/12 00:59:59;;;;;;;4.78;1.80;;;;;;;7.95;100.00;100322.00;5043399;28;20070;-61
2023/04/12 01:02:25;;;;;;;3.40;1.52;;;;;;;7.93;100.00;100315.13;5033910;28;20029;-62
2023/04/12 01:04:52;;;;;;;3.72;1.58;;;;;;;7.93;100.00;100301.44;5045216;28;20113;-61
2023/04/12 01:07:43;;;;;;;6.13;2.00;;;;;;;7.88;100.00;100296.66;5041321;28;20037;-62
2023/04/12 01:10:15;;;;;;;4.90;1.80;;;;;;;7.94;100.00;100283.97;5025310;28;20434;-62
2023/04/12 01:12:56;;;;;;;4.32;1.90;;;;;;;7.85;100.00;100267.00;5011279;28;20025;-61
2023/04/12 01:15:25;;;;;;;4.18;1.95;;;;;;;7.79;100.00;100263.28;5025612;28;20029;-62
2023/04/12 01:18:18;;;;;;;4.35;1.65;;;;;;;7.79;100.00;100259.72;5022179;28;20543;-62
2023/04/12 01:20:52;;;;;;;4.60;1.98;;;;;;;7.76;100.00;100244.63;5025663;28;20014;-62
2023/04/12 01:23:39;;;;;;;4.57;2.15;;;;;;;7.83;100.00;100243.72;5042174;28;20036;-62
2023/04/12 01:26:10;;;;;;;4.38;1.90;;;;;;;7.77;100.00;100231.78;5029005;28;20037;-61
2023/04/12 01:28:40;;;;;;;4.38;1.80;;;;;;;7.77;100.00;100226.34;5023481;28;20048;-62
2023/04/12 01:31:07;;;;;;;4.97;1.83;;;;;;;7.72;100.00;100215.25;5033641;28;20080;-62
2023/04/12 01:33:35;;;;;;;4.57;1.90;;;;;;;7.80;100.00;100215.75;5019224;28;20024;-61
2023/04/12 01:36:11;;;;;;;4.75;1.80;;;;;;;7.70;100.00;100212.72;5030980;28;20033;-62
2023/04/12 01:38:38;;;;;;;4.65;1.75;;;;;;;7.78;100.00;100193.28;5037297;28;20187;-62
2023/04/12 01:41:04;;;;;;;6.00;1.90;;;;;;;7.83;100.00;100200.81;5036863;28;20103;-61
2023/04/12 01:43:29;;;;;;;5.47;1.88;;;;;;;7.73;100.00;100182.22;5040942;28;20040;-62
2023/04/12 01:45:55;;;;;;;4.30;1.80;;;;;;;7.71;100.00;100172.59;5026027;28;20029;-61
2023/04/12 01:48:20;;;;;;;3.65;1.60;;;;;;;7.69;100.00;100170.06;5026457;28;20416;-62
2023/04/12 01:51:05;;;;;;;5.20;1.98;;;;;;;7.63;100.00;100162.78;5035378;28;20036;-62
2023/04/12 01:53:44;;;;;;;4.32;1.90;;;;;;;7.63;100.00;100161.94;5044241;28;20033;-61
2023/04/12 01:56:10;;;;;;;5.05;2.00;;;;;;;7.63;100.00;100162.78;5027484;28;20056;-62
2023/04/12 01:58:37;;;;;;;4.05;1.95;;;;;;;7.66;100.00;100161.50;5043712;28;20025;-62
2023/04/12 02:01:04;;;;;;;5.07;2.00;;;;;;;7.69;100.00;100161.03;5024448;28;20033;-62
2023/04/12 02:03:30;;;;;;;2.83;1.58;;;;;;;7.68;100.00;100129.28;5020390;28;20037;-62
2023/04/12 02:05:57;;;;;;;3.42;1.85;;;;;;;7.67;100.00;100124.91;5022795;28;20033;-62
2023/04/12 02:08:23;;;;;;;7.90;1.93;;;;;;;7.66;100.00;100117.78;5026323;28;20045;-62
2023/04/12 02:10:49;;;;;;;6.07;1.98;;;;;;;7.66;100.00;100112.31;5024810;28;20033;-62
2023/04/12 02:13:14;;;;;;;4.60;2.00;;;;;;;7.64;100.00;100106.22;5025529;28;20079;-62
2023/04/12 02:15:39;;;;;;;4.93;2.13;;;;;;;7.65;100.00;100100.50;5022288;28;20715;-62
2023/04/12 02:18:04;;;;;;;4.65;1.75;;;;;;;7.68;100.00;100082.84;5025819;28;20068;-62
2023/04/12 02:20:30;;;;;;;4.72;1.80;;;;;;;7.65;100.00;100077.81;5027465;28;20384;-62
2023/04/12 02:22:55;;;;;;;5.30;2.00;;;;;;;7.67;100.00;100072.97;5024825;28;20029;-61
2023/04/12 02:25:20;;;;;;;5.47;1.88;;;;;;;7.75;100.00;100068.00;5029159;28;20121;-62
2023/04/12 02:27:47;;;;;;;5.82;1.90;;;;;;;7.66;100.00;100068.56;5025750;28;20060;-62
2023/04/12 02:30:14;;;;;;;6.05;2.20;;;;;;;7.68;100.00;100052.78;5035846;28;20365;-63
2023/04/12 02:32:45;;;;;;;5.13;1.85;;;;;;;7.63;100.00;100044.44;5045251;28;20025;-62
2023/04/12 02:35:12;;;;;;;5.13;2.05;;;;;;;7.63;100.00;100053.47;5029492;28;20460;-61
2023/04/12 02:37:38;;;;;;;4.38;1.90;;;;;;;7.67;100.00;100042.91;5041909;28;20029;-62
2023/04/12 02:40:05;;;;;;;5.05;1.88;;;;;;;7.66;100.00;100036.63;5029024;28;20061;-62
2023/04/12 02:42:31;;;;;;;3.15;1.50;;;;;;;7.65;100.00;100018.53;5040209;28;20403;-61
2023/04/12 02:44:56;;;;;;;5.22;1.75;;;;;;;7.63;100.00;100001.53;5032309;28;20033;-62
2023/04/12 02:47:27;;;;;;;4.75;1.50;;;;;;;7.63;100.00;100011.63;5030931;28;20037;-61
2023/04/12 02:49:52;;;;;;;4.20;1.80;;;;;;;7.62;100.00;100001.78;5028459;28;20029;-62
2023/04/12 02:52:17;;;;;;;6.53;2.10;;;;;;;7.64;100.00;99991.44;5034375;28;20037;-61
2023/04/12 02:54:43;;;;;;;3.50;1.70;;;;;;;7.60;100.00;99993.78;5037447;28;20060;-62
2023/04/12 02:57:09;;;;;;;3.42;1.73;;;;;;;7.61;100.00;99989.19;5027620;28;20033;-61
2023/04/12 02:59:35;;;;;;;4.05;1.70;;;;;;;7.60;100.00;99973.84;5033778;28;20411;-62
2023/04/12 03:02:00;;;;;;;3.35;1.75;;;;;;;7.61;100.00;99956.41;5029327;28;20030;-62
2023/04/12 03:04:28;;;;;;;3.30;1.65;;;;;;;7.55;100.00;99960.88;5029331;28;20025;-62
2023/04/12 03:06:54;;;;;;;3.28;1.60;;;;;;;7.54;100.00;99953.75;5038951;28;20582;-62
2023/04/12 03:09:19;;;;;;;3.88;1.60;;;;;;;7.58;100.00;99952.22;5025080;28;20025;-61
2023/04/12 03:11:45;;;;;;;3.50;1.70;;;;;;;7.59;100.00;99937.47;5032744;28;20066;-61
2023/04/12 03:14:11;;;;;;;3.55;1.60;;;;;;;7.52;100.00;99923.94;5032065;28;20119;-62
2023/04/12 03:16:36;;;;;;;3.92;1.50;;;;;;;7.51;100.00;99929.63;5020153;28;20076;-61
2023/04/12 03:19:02;;;;;;;3.08;1.52;;;;;;;7.50;100.00;99936.13;5026450;28;20446;-62
2023/04/12 03:21:27;;;;;;;2.17;1.27;;;;;;;7.47;100.00;99925.69;5036716;28;20034;-62
2023/04/12 03:23:53;;;;;;;3.13;1.58;;;;;;;7.49;100.00;99918.09;5029749;28;20017;-62
2023/04/12 03:26:19;;;;;;;3.95;1.70;;;;;;;7.52;100.00;99914.91;5028275;28;20048;-62
2023/04/12 03:28:45;;;;;;;2.85;1.45;;;;;;;7.45;100.00;99916.88;5029607;28;20456;-62
2023/04/12 03:31:11;;;;;;;2.92;1.50;;;;;;;7.43;100.00;99911.66;5033373;28;20070;-61
2023/04/12 03:33:36;;;;;;;2.92;1.63;;;;;;;7.40;100.00;99911.28;5029278;28;20372;-61
2023/04/12 03:36:03;;;;;;;2.95;1.50;;;;;;;7.39;100.00;99904.16;5034645;28;20066;-62
2023/04/12 03:38:28;;;;;;;3.88;1.80;;;;;;;7.35;100.00;99900.22;5024362;28;20053;-61
2023/04/12 03:40:53;;;;;;;2.58;1.50;;;;;;;7.39;100.00;99890.50;5031049;28;20033;-61
2023/04/12 03:43:19;;;;;;;3.65;1.60;;;;;;;7.38;100.00;99891.56;5036699;28;20026;-62
2023/04/12 03:45:44;;;;;;;2.95;1.58;;;;;;;7.38;100.00;99880.66;5024995;28;20115;-62
2023/04/12 03:48:10;;;;;;;3.13;1.52;;;;;;;7.47;100.00;99879.25;5028115;28;20112;-61
2023/04/12 03:50:43;;;;;;;3.15;1.60;;;;;;;7.39;100.00;99888.59;5033665;28;20037;-61
2023/04/12 03:53:08;;;;;;;3.75;1.50;;;;;;;7.35;100.00;99870.19;5041648;28;20028;-61
2023/04/12 03:55:36;;;;;;;3.63;1.60;;;;;;;7.28;100.00;99862.09;5026049;28;20090;-61
2023/04/12 03:58:01;;;;;;;4.68;1.88;;;;;;;7.26;100.00;99851.41;5027251;28;20029;-62
2023/04/12 04:00:27;;;;;;;2.22;1.60;;;;;;;7.24;100.00;99855.44;5029009;28;20510;-61
2023/04/12 04:02:52;;;;;;;3.60;1.70;;;;;;;7.22;100.00;99850.22;5026013;28;20033;-61
2023/04/12 04:05:18;;;;;;;3.97;1.80;;;;;;;7.27;100.00;99853.06;5026816;28;20519;-62
2023/04/12 04:07:43;;;;;;;2.83;1.83;;;;;;;7.32;100.00;99838.72;5025469;28;20029;-62
2023/04/12 04:10:09;;;;;;;2.20;1.45;;;;;;;7.24;100.00;99833.56;5026632;28;20094;-61
2023/04/12 04:12:34;;;;;;;3.05;1.70;;;;;;;7.26;100.00;99829.56;5036373;28;20082;-61
2023/04/12 04:14:59;;;;;;;4.32;1.60;;;;;;;7.36;100.00;99828.16;5046252;28;20021;-61
2023/04/12 04:17:25;;;;;;;3.97;1.52;;;;;;;7.30;100.00;99824.47;5031201;28;20120;-61
2023/04/12 04:19:50;;;;;;;3.75;1.80;;;;;;;7.26;100.00;99818.63;5027583;28;20094;-61
2023/04/12 04:22:16;;;;;;;3.50;1.80;;;;;;;7.26;100.00;99818.63;5028164;28;20062;-61
2023/04/12 04:24:42;;;;;;;2.80;1.80;;;;;;;7.21;100.00;99809.47;5024467;28;20052;-61
2023/04/12 04:27:07;;;;;;;2.53;1.63;;;;;;;7.25;100.00;99803.31;5029681;28;20025;-61
2023/04/12 04:29:32;;;;;;;4.07;1.77;;;;;;;7.22;100.00;99801.06;5026994;28;20091;-61
2023/04/12 04:31:58;;;;;;;2.85;1.50;;;;;;;7.19;100.00;99801.50;5026287;28;20074;-61
2023/04/12 04:34:24;;;;;;;2.10;1.67;;;;;;;7.25;100.00;99800.59;5034735;28;20052;-62
2023/04/12 04:36:50;;;;;;;2.95;1.70;;;;;;;7.21;100.00;99793.94;5035773;28;20111;-61
2023/04/12 04:39:15;;;;;;;2.38;1.70;;;;;;;7.25;100.00;99799.75;5037424;28;20041;-61
2023/04/12 04:41:41;;;;;;;3.00;1.70;;;;;;;7.17;100.00;99787.25;5025421;28;20036;-61
2023/04/12 04:44:08;;;;;;;2.03;1.75;;;;;;;7.26;100.00;99799.53;5025839;28;20104;-61
2023/04/12 04:46:36;;;;;;;4.53;2.00;;;;;;;7.19;100.00;99782.38;5035240;28;20121;-61
2023/04/12 04:49:02;;;;;;;;;;;;;;;7.20;100.00;99780.53;5026579;28;20028;-61
2023/04/12 04:51:28;;;;;;;4.43;1.95;;;;;;;7.21;100.00;99782.19;5036239;28;19940;-61
2023/04/12 04:53:53;;;;;;;3.30;1.60;;;;;;;7.22;100.00;99783.84;5035032;28;20384;-61
2023/04/12 04:56:18;;;;;;;2.58;1.80;;;;;;;7.20;100.00;99783.25;5030761;28;20060;-61
2023/04/12 04:58:44;;;;;;;4.10;1.92;;;;;;;7.20;100.00;99775.88;5035972;28;20120;-61
2023/04/12 05:01:12;;;;;;;3.97;1.73;;;;;;;7.25;100.00;99777.91;5025770;28;20017;-60
2023/04/12 05:03:39;;;;;;;3.95;1.73;;;;;;;7.24;100.00;99768.88;5027480;28;20065;-61
2023/04/12 05:06:05;;;;;;;2.63;1.57;;;;;;;7.33;100.00;99757.59;5026312;28;20076;-61
2023/04/12 05:08:30;;;;;;;3.80;1.80;;;;;;;7.34;100.00;99770.19;5023577;28;20404;-61
2023/04/12 05:10:56;;;;;;;4.13;1.90;;;;;;;7.33;100.00;99774.00;5028232;28;20048;-61
2023/04/12 05:13:21;;;;;;;3.58;1.70;;;;;;;7.33;100.00;99776.72;5025656;28;20508;-61
2023/04/12 05:15:47;;;;;;;2.45;2.00;;;;;;;7.38;100.00;99768.66;5024931;28;20127;-61
2023/04/12 05:18:13;;;;;;;4.65;2.20;;;;;;;7.36;100.00;99757.97;5023433;28;20056;-62
2023/04/12 05:20:39;;;;;;;2.92;1.90;;;;;;;7.40;100.00;99761.03;5027262;28;20033;-61
2023/04/12 05:23:04;;;;;;;3.15;1.88;;;;;;;7.41;100.00;99766.28;5042712;28;20024;-61
2023/04/12 05:25:30;;;;;;;3.30;2.20;;;;;;;7.42;100.00;99767.13;5037275;28;20053;-61
2023/04/12 05:27:55;;;;;;;3.47;1.90;;;;;;;7.47;100.00;99748.94;5026630;28;20499;-60
2023/04/12 05:30:21;;;;;;;4.30;1.70;;;;;;;7.49;100.00;99741.34;5037957;28;20132;-61
2023/04/12 05:32:46;;;;;;;2.88;1.63;;;;;;;7.48;100.00;99750.59;5026268;28;20056;-61
2023/04/12 05:35:11;;;;;;;2.35;1.85;;;;;;;7.57;100.00;99758.44;5025466;28;20036;-61
2023/04/12 05:37:37;;;;;;;2.50;1.85;;;;;;;7.50;100.00;99748.47;5021249;28;20179;-61
2023/04/12 05:40:05;;;;;;;2.88;1.90;;;;;;;7.51;100.00;99743.84;5029372;28;20464;-61
2023/04/12 05:42:30;;;;;;;;;;;;;;;7.58;100.00;99738.25;5042531;28;20033;-61
2023/04/12 05:44:56;;;;;;;2.85;1.85;;;;;;;7.56;100.00;99741.22;5028819;28;19917;-61
2023/04/12 05:47:21;;;;;;;4.35;2.20;;;;;;;7.57;100.00;99742.88;5029336;28;20663;-61
2023/04/12 05:49:46;;;;;;;2.10;1.90;;;;;;;7.64;100.00;99735.38;5036357;28;20056;-61
2023/04/12 05:52:12;;;;;;;2.63;2.00;;;;;;;7.59;100.00;99746.19;5027552;28;20116;-61
2023/04/12 05:54:37;;;;;;;3.53;2.03;;;;;;;7.59;100.00;99735.28;5025402;28;20408;-61
2023/04/12 05:57:02;;;;;;;3.92;2.05;;;;;;;7.67;100.00;99739.56;5023016;28;20476;-60
2023/04/12 05:59:27;;;;;;;3.20;2.08;;;;;;;7.68;100.00;99743.94;5027763;28;20033;-61
2023/04/12 06:01:54;;;;;;;2.25;2.00;;;;;;;7.66;100.00;99726.97;5025099;28;20112;-61
2023/04/12 06:04:19;;;;;;;3.20;2.00;;;;;;;7.69;100.00;99729.22;5032035;28;20124;-61
2023/04/12 06:06:46;;;;;;;3.72;2.20;;;;;;;7.72;100.00;99728.75;5020552;28;20424;-61
2023/04/12 06:09:11;;;;;;;2.80;2.10;;;;;;;7.77;100.00;99726.13;5024606;28;20034;-60
2023/04/12 06:11:38;;;;;;;3.40;2.00;;;;;;;7.77;100.00;99726.94;5037733;28;20539;-61
2023/04/12 06:14:03;;;;;;;4.07;2.15;;;;;;;7.81;100.00;99730.03;5032559;28;20017;-61
2023/04/12 06:16:28;;;;;;;2.83;2.17;;;;;;;7.88;100.00;99724.44;5035645;28;20040;-61
2023/04/12 06:18:54;;;;;;;4.03;1.98;;;;;;;7.90;100.00;99725.00;5030590;28;20060;-61
2023/04/12 06:21:19;;;;;;;3.25;1.98;;;;;;;7.89;100.00;99723.34;5036489;28;20104;-61
2023/04/12 06:23:44;;;;;;;3.65;1.90;;;;;;;7.88;100.00;99717.06;5042491;28;20029;-61
2023/04/12 06:26:10;;;;;;;2.83;1.70;;;;;;;7.86;100.00;99719.22;5034821;28;20096;-61
2023/04/12 06:28:35;;;;;;;5.25;2.50;;;;;;;7.89;100.00;99728.81;5028504;28;20033;-61
2023/04/12 06:31:00;;;;;;;3.22;2.63;;;;;;;7.93;100.00;99724.53;5033713;28;20032;-61
2023/04/12 06:33:26;;;;;;;2.95;2.15;;;;;;;7.95;100.00;99730.59;5041000;28;20072;-61
2023/04/12 06:35:51;;;;;;;3.42;2.03;;;;;;;7.96;100.00;99724.91;5025282;28;20063;-61
2023/04/12 06:38:17;;;;;;;4.93;2.17;;;;;;;7.99;100.00;99727.13;5016287;28;20135;-61
2023/04/12 06:40:42;;;;;;;2.90;2.22;;;;;;;8.00;100.00;99714.28;5014937;28;22407;-62
2023/04/12 06:43:08;;;;;;;3.55;2.30;;;;;;;7.99;100.00;99718.94;5016839;28;22637;-61
2023/04/12 06:45:33;;;;;;;3.53;2.70;;;;;;;8.01;100.00;99710.50;5016027;28;20029;-62
2023/04/12 06:47:58;;;;;;;3.63;2.35;;;;;;;8.04;100.00;99720.94;5010861;28;20120;-61
2023/04/12 06:50:25;;;;;;;2.72;2.38;;;;;;;8.10;100.00;99725.44;5016977;28;20037;-61
2023/04/12 06:52:50;;;;;;;5.55;3.38;;;;;;;8.07;100.00;99710.38;5027533;28;20095;-61
2023/04/12 06:55:16;;;;;;;3.10;2.78;;;;;;;8.12;100.00;99720.59;5032069;28;20626;-61
2023/04/12 06:57:42;;;;;;;4.55;3.00;;;;;;;8.14;100.00;99726.63;5030073;28;20034;-61
2023/04/12 07:00:08;;;;;;;3.00;2.75;;;;;;;8.15;100.00;99720.06;5028008;28;20037;-62
2023/04/12 07:02:33;;;;;;;3.28;2.75;;;;;;;8.20;100.00;99714.72;5027296;28;20400;-62
2023/04/12 07:04:58;;;;;;;4.18;2.90;;;;;;;8.24;100.00;99715.06;5026779;28;20025;-62
2023/04/12 07:07:24;;;;;;;3.90;2.80;;;;;;;8.28;100.00;99728.00;5024784;28;20033;-61
2023/04/12 07:09:51;;;;;;;6.57;4.03;;;;;;;8.32;100.00;99726.47;5026619;28;20026;-61
2023/04/12 07:12:16;;;;;;;4.05;2.92;;;;;;;8.36;100.00;99724.06;5027293;28;20380;-61
2023/04/12 07:14:41;;;;;;;4.30;2.72;;;;;;;8.41;100.00;99720.63;5048173;28;20021;-60
2023/04/12 07:17:06;;;;;;;4.22;2.50;;;;;;;8.40;100.00;99725.25;5010384;28;20568;-60
2023/04/12 07:19:32;;;;;;;3.95;2.72;;;;;;;8.42;100.00;99728.59;4995507;28;20036;-60
2023/04/12 07:21:57;;;;;;;3.90;2.67;;;;;;;8.45;100.00;99724.53;5007953;28;20634;-62
2023/04/12 07:24:23;;;;;;;6.68;4.75;;;;;;;8.49;100.00;99726.53;5015514;28;20030;-60
2023/04/12 07:26:48;;;;;;;7.13;3.45;;;;;;;8.51;100.00;99724.38;5011964;28;20679;-59
2023/04/12 07:29:13;;;;;;;4.40;2.78;;;;;;;8.54;100.00;99725.81;5008226;28;20505;-61
2023/04/12 07:31:39;;;;;;;5.03;2.55;;;;;;;8.56;100.00;99719.00;5012091;28;20080;-61
2023/04/12 07:34:04;;;;;;;4.93;2.92;;;;;;;8.62;100.00;99716.34;5004966;28;20087;-60
2023/04/12 07:36:30;;;;;;;5.70;2.60;;;;;;;8.67;100.00;99724.66;5011357;28;20479;-60
2023/04/12 07:38:55;;;;;;;5.50;2.50;;;;;;;8.74;100.00;99726.19;5006047;28;20427;-60
2023/04/12 07:41:21;;;;;;;3.63;2.38;;;;;;;8.84;100.00;99722.78;5011172;28;20113;-61
2023/04/12 07:43:47;;;;;;;3.72;2.80;;;;;;;8.93;100.00;99717.75;5023653;28;20026;-61
2023/04/12 07:46:12;;;;;;;4.72;2.75;;;;;;;9.01;100.00;99709.94;5030911;28;20030;-62
2023/04/12 07:48:37;;;;;;;4.35;2.90;;;;;;;9.16;100.00;99706.63;5026703;28;20338;-61
2023/04/12 07:51:03;;;;;;;4.82;2.33;;;;;;;9.25;100.00;99710.59;5030697;28;20384;-61
2023/04/12 07:53:28;;;;;;;6.55;2.80;;;;;;;9.27;100.00;99710.34;5033888;28;20026;-60
2023/04/12 07:55:55;;;;;;;5.82;2.72;;;;;;;9.21;100.00;99709.44;5033471;28;20033;-60
2023/04/12 07:58:22;;;;;;;4.90;2.53;;;;;;;9.14;100.00;99702.47;5026884;28;20372;-60
2023/04/12 08:00:47;;;;;;;4.60;2.50;;;;;;;9.16;100.00;99703.06;5027047;28;20095;-60
2023/04/12 08:03:17;;;;;;;4.93;2.40;;;;;;;9.19;100.00;99697.09;5025221;28;20033;-61
2023/04/12 08:05:43;;;;;;;5.50;2.45;;;;;;;9.20;100.00;99702.31;5025537;28;20473;-62
2023/04/12 08:08:09;;;;;;;6.47;2.38;;;;;;;9.20;100.00;99710.53;5006253;28;20026;-61
2023/04/12 08:10:36;;;;;;;5.63;2.30;;;;;;;9.19;100.00;99700.66;5014381;28;20029;-60
2023/04/12 08:13:02;;;;;;;5.53;2.70;;;;;;;9.26;100.00;99709.53;5009119;28;20695;-60
2023/04/12 08:15:27;;;;;;;5.47;2.25;;;;;;;9.35;100.00;99710.75;5007553;28;20447;-60
2023/04/12 08:17:53;;;;;;;6.18;2.53;;;;;;;9.33;100.00;99721.16;5006573;28;20025;-61
2023/04/12 08:20:18;;;;;;;4.93;2.10;;;;;;;9.30;100.00;99718.91;5010047;28;20124;-61
2023/04/12 08:22:45;;;;;;;6.05;2.25;;;;;;;9.22;100.00;99722.06;5007651;28;20128;-62
2023/04/12 08:25:11;;;;;;;6.47;2.22;;;;;;;9.13;100.00;99726.31;5014346;28;20554;-61
2023/04/12 08:27:40;;;;;;;4.88;2.28;;;;;;;9.07;100.00;99724.53;5007664;28;20036;-61
2023/04/12 08:30:07;;;;;;;5.05;2.10;;;;;;;9.00;100.00;99715.66;5010625;28;20882;-61
2023/04/12 08:32:32;;;;;;;7.22;2.95;;;;;;;9.00;100.00;99718.41;5034282;28;20370;-61
2023/04/12 08:34:59;;;;;;;4.97;2.20;;;;;;;9.04;100.00;99714.94;5011140;28;20103;-61
2023/04/12 08:37:24;;;;;;;5.90;2.40;;;;;;;9.08;100.00;99720.75;5008534;28;20044;-61
2023/04/12 08:39:50;;;;;;;7.10;2.58;;;;;;;9.12;100.00;99719.16;5009924;28;20029;-60
2023/04/12 08:42:15;;;;;;;5.93;2.80;;;;;;;9.18;100.00;99714.59;5008114;28;20031;-61
2023/04/12 08:44:41;;;;;;;6.28;2.58;;;;;;;9.33;100.00;99715.69;5010054;28;20037;-61
2023/04/12 08:47:09;;;;;;;4.60;2.42;;;;;;;9.49;100.00;99700.28;5009775;28;20510;-61
2023/04/12 08:49:35;;;;;;;5.60;2.90;;;;;;;10.04;100.00;99706.81;5009452;28;20396;-61
2023/04/12 08:52:06;;;;;;;5.38;3.03;;;;;;;10.85;100.00;99707.72;5008867;28;20025;-61
2023/04/12 08:54:35;;;;;;;7.38;2.92;;;;;;;11.54;100.00;99706.06;5011898;28;20107;-60
2023/04/12 08:57:05;;;;;;;6.00;2.42;;;;;;;12.58;100.00;99707.13;5027247;28;20025;-61
2023/04/12 08:59:31;;;;;;;4.95;2.33;;;;;;;12.82;96.69;99701.91;5027395;28;20018;-61
2023/04/12 09:01:58;;;;;;;6.88;2.38;;;;;;;12.64;94.76;99700.50;5024874;28;20116;-61
2023/04/12 09:04:25;;;;;;;7.13;2.33;;;;;;;12.54;93.68;99701.31;5042207;28;20380;-61
2023/04/12 09:06:50;;;;;;;6.28;2.03;;;;;;;12.75;93.36;99699.41;5013806;28;20423;-61
2023/04/12 09:09:16;;;;;;;6.03;2.42;;;;;;;13.12;88.32;99701.09;5009751;28;20124;-61
2023/04/12 09:11:41;;;;;;;6.10;2.05;;;;;;;13.40;86.64;99689.53;5010109;28;20159;-61
2023/04/12 09:14:24;;;;;;;6.47;1.85;;;;;;;13.95;87.87;99693.28;5009893;28;20614;-61
2023/04/12 09:16:50;;;;;;;7.03;2.28;;;;;;;15.49;83.46;99682.91;5008766;28;20115;-62
2023/04/12 09:19:15;;;;;;;6.97;2.38;;;;;;;16.73;72.97;99677.56;5010767;28;20516;-62
2023/04/12 09:21:53;;;;;;;8.50;2.60;;;;;;;17.23;72.65;99670.34;5008990;28;20037;-61
2023/04/12 09:24:18;;;;;;;6.20;2.03;;;;;;;18.11;65.22;99668.47;5009515;28;20055;-62
2023/04/12 09:26:43;;;;;;;6.78;2.40;;;;;;;19.76;61.65;99672.59;5010799;28;20033;-61
2023/04/12 09:29:24;;;;;;;8.68;3.03;;;;;;;20.71;62.29;99683.25;5009433;28;20120;-62
2023/04/12 09:31:59;;;;;;;7.13;2.50;;;;;;;20.93;59.43;99665.53;5010968;28;20488;-62
2023/04/12 09:34:25;;;;;;;7.93;2.55;;;;;;;20.07;57.07;99675.38;5009571;28;20101;-62
2023/04/12 09:36:50;;;;;;;8.82;3.70;;;;;;;17.99;60.33;99679.25;5010745;28;20040;-61
2023/04/12 09:39:15;;;;;;;8.03;3.00;;;;;;;16.39;67.42;99686.06;5016011;28;20386;-62
2023/04/12 09:41:41;;;;;;;8.43;3.28;;;;;;;15.23;71.61;99687.00;5025530;28;20300;-61
2023/04/12 09:44:06;;;;;;;7.43;3.38;;;;;;;14.37;77.57;99677.38;5028130;28;20651;-61
2023/04/12 09:46:32;;;;;;;9.25;3.30;;;;;;;13.86;81.25;99683.94;5029847;28;20684;-61
2023/04/12 09:48:58;;;;;;;10.73;3.60;;;;;;;13.79;79.50;99675.13;5027009;28;20503;-61
2023/04/12 09:51:29;;;;;;;8.27;3.10;;;;;;;13.89;79.25;99669.56;5031060;28;20380;-61
2023/04/12 09:53:59;;;;;;;8.85;2.80;;;;;;;13.90;79.25;99665.69;5027954;28;20029;-61
2023/04/12 09:56:28;;;;;;;9.70;3.60;;;;;;;13.80;78.74;99662.16;5026623;28;20435;-61
2023/04/12 09:58:53;;;;;;;10.50;4.03;;;;;;;13.71;77.64;99659.97;5026838;28;20021;-62
2023/04/12 10:01:22;;;;;;;9.23;3.40;;;;;;;13.46;77.61;99658.09;5030943;28;20514;-61
2023/04/12 10:03:47;;;;;;;;;;;;;;;13.57;81.31;99660.81;5027637;28;20439;-61
2023/04/12 10:06:13;;;;;;;8.57;3.38;;;;;;;13.03;81.38;99669.66;5034498;28;19917;-62
2023/04/12 10:08:39;;;;;;;11.90;3.60;;;;;;;12.71;81.74;99673.50;5029736;28;20044;-61
2023/04/12 10:11:05;;;;;;;8.43;3.28;;;;;;;12.43;83.79;99663.84;5028429;28;20021;-61
2023/04/12 10:13:35;;;;;;;10.13;3.78;;;;;;;12.25;82.37;99672.59;5029834;28;20112;-61
2023/04/12 10:16:04;;;;;;;8.85;3.13;;;;;;;11.99;84.81;99666.16;5029057;28;20056;-61
2023/04/12 10:18:30;;;;;;;10.50;3.65;;;;;;;11.86;86.09;99672.97;5026571;28;20415;-61
2023/04/12 10:20:57;;;;;;;10.15;3.05;;;;;;;11.73;86.51;99671.53;5029160;28;20072;-61
2023/04/12 10:23:22;;;;;;;10.05;3.17;;;;;;;11.86;86.48;99673.84;5024957;28;20033;-61
2023/04/12 10:25:48;;;;;;;10.02;4.13;;;;;;;12.32;85.08;99675.94;5028797;28;20215;-61
2023/04/12 10:28:16;;;;;;;9.35;3.35;;;;;;;13.09;82.25;99660.31;5033016;28;20021;-61
2023/04/12 10:30:41;;;;;;;11.52;3.25;;;;;;;13.83;80.46;99656.88;5041476;28;20472;-61
2023/04/12 10:33:18;;;;;;;9.73;3.15;;;;;;;14.26;77.91;99660.84;5030140;28;20041;-61
2023/04/12 10:36:01;;;;;;;9.60;3.20;;;;;;;14.06;76.29;99655.41;5043420;28;20031;-62
2023/04/12 10:38:31;;;;;;;7.78;2.70;;;;;;;13.85;77.18;99660.19;5030752;28;20120;-61
2023/04/12 10:41:06;;;;;;;11.05;2.97;;;;;;;13.67;78.35;99660.78;5043594;28;20033;-61
2023/04/12 10:43:31;;;;;;;8.60;2.88;;;;;;;13.31;73.54;99668.31;5046126;28;20456;-61
2023/04/12 10:46:02;;;;;;;10.40;3.58;;;;;;;13.13;75.02;99670.53;5049887;28;20108;-61
2023/04/12 10:48:37;;;;;;;8.35;2.90;;;;;;;13.13;77.33;99677.97;5050005;28;20028;-61
2023/04/12 10:51:25;;;;;;;9.40;2.35;;;;;;;13.30;76.21;99673.00;5049831;28;20479;-61
2023/04/12 10:53:52;;;;;;;9.77;2.63;;;;;;;13.28;71.54;99672.47;5036980;28;20083;-61
2023/04/12 10:56:29;;;;;;;8.32;2.42;;;;;;;13.21;72.85;99682.91;5029601;28;20021;-61
2023/04/12 10:58:56;;;;;;;10.70;2.55;;;;;;;12.87;69.64;99688.94;5040290;28;20043;-61
2023/04/12 11:01:21;;;;;;;9.90;2.50;;;;;;;12.54;69.51;99681.22;5043589;28;20026;-61
2023/04/12 11:04:05;;;;;;;8.85;2.20;;;;;;;12.31;71.62;99686.09;5035041;28;20059;-61
2023/04/12 11:06:40;;;;;;;8.77;2.42;;;;;;;12.08;71.25;99694.84;5026520;28;20469;-61
2023/04/12 11:09:06;;;;;;;9.85;2.53;;;;;;;11.94;73.69;99680.72;5027835;28;20515;-61
2023/04/12 11:11:33;;;;;;;11.02;2.55;;;;;;;11.99;74.06;99688.19;5038084;28;20037;-61
2023/04/12 11:14:01;;;;;;;7.80;2.22;;;;;;;12.03;74.97;99692.88;5036843;28;20025;-61
2023/04/12 11:16:26;;;;;;;8.80;2.57;;;;;;;12.03;74.52;99697.56;5028810;28;20523;-60
2023/04/12 11:18:53;;;;;;;8.55;2.38;;;;;;;12.05;74.60;99692.59;5028357;28;20053;-61
2023/04/12 11:21:19;;;;;;;8.75;2.58;;;;;;;12.09;75.95;99690.97;5028093;28;20029;-62
2023/04/12 11:23:45;;;;;;;9.13;2.50;;;;;;;11.89;75.11;99695.28;5028561;28;20033;-61
2023/04/12 11:26:10;;;;;;;9.25;2.80;;;;;;;11.75;77.46;99691.31;5015974;28;20072;-61
2023/04/12 11:28:36;;;;;;;8.68;2.90;;;;;;;11.65;79.42;99691.25;5042858;28;20503;-61
2023/04/12 11:31:01;;;;;;;11.13;2.92;;;;;;;11.47;80.65;99699.97;5046361;28;20032;-61